createdAt,value
2023-03-11T00:00:39.493Z,25.75
2023-03-11T00:03:07.370Z,25.17
2023-03-11T00:05:37.453Z,24.60
2023-03-11T00:08:05.392Z,25.67
2023-03-11T00:10:35.167Z,24.48
2023-03-11T00:13:02.800Z,23.67
2023-03-11T00:15:30.295Z,22.92
2023-03-11T00:17:57.637Z,23.83
2023-03-11T00:20:30.320Z,23.88
2023-03-11T00:22:57.431Z,23.05
2023-03-11T00:25:26.797Z,23.30
2023-03-11T00:27:53.297Z,23.30
2023-03-11T00:30:21.275Z,21.48
2023-03-11T00:32:49.096Z,21.20
2023-03-11T00:35:18.881Z,21.20
2023-03-11T00:37:47.574Z,21.15
2023-03-11T00:40:19.152Z,20.77
2023-03-11T00:42:45.785Z,20.52
2023-03-11T00:45:13.208Z,20.63
2023-03-11T00:47:40.106Z,21.77
2023-03-11T00:50:09.646Z,23.70
2023-03-11T00:52:36.210Z,21.38
2023-03-11T00:55:02.743Z,23.08
2023-03-11T00:57:29.201Z,25.13
2023-03-11T00:59:56.112Z,24.45
2023-03-11T01:02:23.373Z,23.88
2023-03-11T01:04:55.478Z,26.55
2023-03-11T01:07:23.039Z,24.65
2023-03-11T01:09:49.725Z,25.50
2023-03-11T01:12:16.287Z,26.08
2023-03-11T01:14:42.714Z,27.20
2023-03-11T01:17:09.334Z,27.38
2023-03-11T01:19:35.782Z,26.98
2023-03-11T01:22:02.296Z,27.35
2023-03-11T01:24:28.814Z,27.98
2023-03-11T01:26:55.276Z,24.67
2023-03-11T01:29:21.717Z,24.23
2023-03-11T01:31:48.184Z,25.63
2023-03-11T01:34:14.650Z,22.67
2023-03-11T01:36:41.078Z,22.00
2023-03-11T01:39:07.622Z,19.73
2023-03-11T01:41:34.335Z,16.65
2023-03-11T01:44:00.787Z,16.27
2023-03-11T01:46:41.442Z,15.57
2023-03-11T01:49:12.548Z,14.63
2023-03-11T01:51:42.727Z,12.75
2023-03-11T01:54:13.607Z,12.77
2023-03-11T01:56:41.866Z,9.35
2023-03-11T01:59:11.346Z,8.90
2023-03-11T02:01:45.999Z,7.70
2023-03-11T02:04:13.987Z,6.03
2023-03-11T02:07:15.584Z,5.40
2023-03-11T02:09:42.182Z,5.32
2023-03-11T02:12:12.469Z,4.40
2023-03-11T02:14:43.671Z,4.60
2023-03-11T02:17:10.304Z,3.88
2023-03-11T02:19:59.286Z,3.78
2023-03-11T02:22:28.319Z,4.15
2023-03-11T02:25:05.838Z,3.42
2023-03-11T02:27:36.323Z,4.13
2023-03-11T02:30:03.383Z,4.20
2023-03-11T02:32:30.115Z,3.92
2023-03-11T02:34:56.571Z,4.57
2023-03-11T02:37:23.231Z,4.05
2023-03-11T02:39:52.397Z,3.95
2023-03-11T02:42:31.689Z,4.25
2023-03-11T02:45:04.463Z,4.07
2023-03-11T02:47:31.390Z,4.18
2023-03-11T02:49:57.967Z,4.38
2023-03-11T02:52:33.552Z,4.10
2023-03-11T02:55:00.007Z,4.72
2023-03-11T02:57:26.794Z,4.13
2023-03-11T02:59:53.407Z,4.35
2023-03-11T03:02:20.250Z,5.13
2023-03-11T03:04:46.733Z,4.78
2023-03-11T03:07:13.159Z,4.93
2023-03-11T03:09:39.726Z,5.47
2023-03-11T03:12:06.677Z,5.50
2023-03-11T03:14:33.129Z,5.68
2023-03-11T03:16:59.794Z,5.82
2023-03-11T03:19:26.420Z,5.85
2023-03-11T03:21:53.134Z,5.60
2023-03-11T03:24:19.715Z,5.38
2023-03-11T03:26:46.279Z,5.38
2023-03-11T03:29:12.723Z,5.18
2023-03-11T03:31:39.323Z,5.65
2023-03-11T03:34:07.072Z,5.82
2023-03-11T03:36:33.635Z,5.95
2023-03-11T03:39:01.059Z,6.13
2023-03-11T03:41:27.930Z,6.75
2023-03-11T03:43:54.803Z,6.60
2023-03-11T03:46:21.784Z,7.60
2023-03-11T03:48:48.344Z,7.32
2023-03-11T03:51:15.780Z,7.53
2023-03-11T03:53:42.601Z,7.38
2023-03-11T03:56:11.863Z,7.43
2023-03-11T03:58:38.706Z,7.95
2023-03-11T04:01:06.963Z,7.43
2023-03-11T04:03:35.203Z,8.07
2023-03-11T04:06:19.195Z,7.95
2023-03-11T04:08:46.153Z,7.97
2023-03-11T04:11:13.506Z,7.75
2023-03-11T04:13:40.304Z,8.23
2023-03-11T04:16:07.885Z,8.90
2023-03-11T04:18:35.262Z,8.55
2023-03-11T04:21:06.480Z,7.90
2023-03-11T04:23:33.455Z,8.68
2023-03-11T04:26:00.505Z,8.98
2023-03-11T04:28:27.465Z,8.02
2023-03-11T04:30:54.101Z,8.20
2023-03-11T04:33:20.729Z,7.40
2023-03-11T04:35:47.232Z,7.45
2023-03-11T04:38:13.786Z,7.05
2023-03-11T04:40:40.383Z,6.43
2023-03-11T04:43:07.112Z,5.88
2023-03-11T04:45:33.601Z,4.97
2023-03-11T04:48:00.116Z,5.65
2023-03-11T04:50:26.688Z,5.20
2023-03-11T04:52:53.144Z,4.82
2023-03-11T04:55:19.777Z,4.05
2023-03-11T04:57:46.269Z,4.95
2023-03-11T05:00:15.571Z,4.38
2023-03-11T05:02:42.371Z,4.72
2023-03-11T05:05:10.113Z,4.45
2023-03-11T05:07:37.159Z,4.82
2023-03-11T05:10:04.980Z,4.70
2023-03-11T05:12:31.608Z,4.75
2023-03-11T05:14:58.099Z,4.78
2023-03-11T05:17:24.905Z,5.22
2023-03-11T05:19:54.074Z,4.78
2023-03-11T05:22:21.141Z,4.20
2023-03-11T05:24:48.152Z,5.10
2023-03-11T05:27:17.935Z,4.85
2023-03-11T05:29:45.117Z,4.88
2023-03-11T05:32:13.060Z,5.30
2023-03-11T05:34:39.666Z,5.72
2023-03-11T05:37:06.428Z,5.75
2023-03-11T05:39:33.436Z,5.38
2023-03-11T05:41:59.924Z,5.30
2023-03-11T05:44:26.391Z,6.30
2023-03-11T05:46:52.956Z,6.18
2023-03-11T05:49:21.310Z,5.82
2023-03-11T05:51:48.677Z,6.18
2023-03-11T05:54:15.352Z,6.45
2023-03-11T05:56:43.776Z,6.60
2023-03-11T05:59:11.809Z,6.57
2023-03-11T06:01:39.342Z,6.32
2023-03-11T06:04:06.079Z,6.32
2023-03-11T06:06:32.875Z,6.25
2023-03-11T06:08:59.511Z,6.70
2023-03-11T06:11:26.892Z,7.28
2023-03-11T06:13:57.722Z,7.22
2023-03-11T06:16:25.156Z,5.25
2023-03-11T06:18:52.256Z,7.65
2023-03-11T06:21:24.221Z,7.03
2023-03-11T06:23:50.957Z,8.25
2023-03-11T06:26:20.394Z,7.10
2023-03-11T06:28:47.832Z,8.20
2023-03-11T06:31:20.613Z,7.80
2023-03-11T06:33:48.369Z,7.90
2023-03-11T06:36:16.822Z,8.38
2023-03-11T06:38:43.873Z,8.38
2023-03-11T06:41:10.800Z,10.20
2023-03-11T06:43:37.509Z,9.15
2023-03-11T06:46:12.208Z,9.05
2023-03-11T06:48:39.243Z,8.93
2023-03-11T06:51:06.727Z,9.57
2023-03-11T06:53:33.930Z,10.02
2023-03-11T06:56:04.287Z,9.55
2023-03-11T06:58:32.426Z,10.65
2023-03-11T07:01:02.931Z,15.98
2023-03-11T07:03:30.254Z,6.67
2023-03-11T07:05:58.109Z,9.48
2023-03-11T07:08:25.243Z,9.07
2023-03-11T07:11:14.681Z,7.38
2023-03-11T07:13:41.582Z,8.02
2023-03-11T07:16:11.234Z,7.70
2023-03-11T07:18:37.908Z,8.15
2023-03-11T07:21:06.761Z,7.22
2023-03-11T07:23:34.272Z,7.20
2023-03-11T07:26:01.072Z,7.68
2023-03-11T07:28:29.025Z,8.32
2023-03-11T07:30:55.715Z,7.57
2023-03-11T07:33:24.049Z,7.32
2023-03-11T07:35:51.182Z,6.70
2023-03-11T07:38:18.160Z,7.22
2023-03-11T07:40:44.625Z,7.10
2023-03-11T07:43:11.082Z,7.38
2023-03-11T07:45:37.771Z,7.18
2023-03-11T07:48:04.748Z,6.75
2023-03-11T07:50:31.187Z,6.80
2023-03-11T07:52:57.666Z,6.88
2023-03-11T07:55:24.158Z,6.85
2023-03-11T07:57:51.674Z,6.38
2023-03-11T08:00:18.668Z,6.75
2023-03-11T08:02:45.269Z,5.82
2023-03-11T08:05:11.988Z,5.65
2023-03-11T08:07:38.814Z,5.95
2023-03-11T08:10:05.647Z,5.90
2023-03-11T08:12:32.129Z,6.22
2023-03-11T08:14:58.538Z,5.85
2023-03-11T08:17:24.987Z,5.57
2023-03-11T08:19:51.604Z,5.93
2023-03-11T08:22:18.084Z,5.20
2023-03-11T08:24:44.579Z,6.28
2023-03-11T08:27:12.360Z,5.93
2023-03-11T08:29:38.904Z,5.85
2023-03-11T08:32:05.801Z,8.32
2023-03-11T08:34:32.952Z,5.97
2023-03-11T08:36:59.596Z,5.75
2023-03-11T08:39:26.009Z,7.18
2023-03-11T08:41:52.475Z,5.53
2023-03-11T08:44:18.975Z,5.18
2023-03-11T08:46:45.741Z,5.65
2023-03-11T08:49:12.217Z,5.07
2023-03-11T08:51:38.687Z,5.82
2023-03-11T08:54:05.701Z,5.93
2023-03-11T08:56:32.442Z,5.85
2023-03-11T08:58:59.423Z,5.97
2023-03-11T09:01:26.007Z,5.90
2023-03-11T09:03:52.754Z,4.50
2023-03-11T09:06:19.934Z,5.57
2023-03-11T09:08:47.657Z,5.93
2023-03-11T09:11:15.806Z,5.80
2023-03-11T09:13:43.040Z,6.80
2023-03-11T09:16:14.512Z,6.50
2023-03-11T09:21:07.818Z,6.35
2023-03-11T09:23:34.481Z,7.63
2023-03-11T09:26:00.945Z,6.20
2023-03-11T09:28:27.494Z,7.07
2023-03-11T09:30:54.000Z,6.28
2023-03-11T09:33:20.477Z,5.55
2023-03-11T09:35:46.970Z,5.90
2023-03-11T09:38:13.489Z,5.95
2023-03-11T09:40:52.153Z,6.45
2023-03-11T09:43:58.121Z,5.80
2023-03-11T09:46:36.786Z,6.07
2023-03-11T09:49:09.540Z,7.05
2023-03-11T09:51:43.228Z,7.28
2023-03-11T09:54:11.767Z,7.28
2023-03-11T09:56:40.063Z,7.10
2023-03-11T09:59:16.954Z,7.20
2023-03-11T10:01:47.027Z,7.70
2023-03-11T10:04:20.200Z,7.15
2023-03-11T10:06:47.934Z,7.47
2023-03-11T10:09:39.660Z,9.18
2023-03-11T10:14:54.384Z,8.88
2023-03-11T10:17:34.278Z,8.93
2023-03-11T10:20:14.382Z,9.10
2023-03-11T10:23:00.607Z,8.57
2023-03-11T10:25:54.906Z,9.73
2023-03-11T10:28:26.685Z,9.45
2023-03-11T10:31:20.268Z,9.95
2023-03-11T10:33:52.338Z,10.23
2023-03-11T10:36:27.217Z,10.48
2023-03-11T10:38:55.652Z,9.18
2023-03-11T10:41:31.138Z,9.30
2023-03-11T10:44:05.996Z,9.10
2023-03-11T10:46:32.650Z,9.65
2023-03-11T10:48:59.107Z,9.25
2023-03-11T10:51:35.039Z,9.63
2023-03-11T10:54:03.482Z,10.52
2023-03-11T10:56:39.140Z,10.98
2023-03-11T10:59:22.926Z,10.63
2023-03-11T11:02:00.739Z,10.40
2023-03-11T11:04:35.947Z,11.05
2023-03-11T11:07:22.745Z,11.15
2023-03-11T11:10:11.745Z,11.30
2023-03-11T11:12:51.530Z,11.43
2023-03-11T11:15:29.708Z,12.10
2023-03-11T11:17:59.918Z,11.05
2023-03-11T11:20:28.155Z,12.15
2023-03-11T11:22:57.991Z,12.57
2023-03-11T11:25:36.698Z,11.85
2023-03-11T11:28:18.281Z,11.20
2023-03-11T11:30:52.736Z,11.05
2023-03-11T11:33:31.613Z,11.95
2023-03-11T11:36:02.062Z,11.40
2023-03-11T11:38:30.165Z,11.80
2023-03-11T11:41:01.553Z,12.23
2023-03-11T11:46:02.097Z,10.65
2023-03-11T11:48:44.947Z,9.82
2023-03-11T11:51:36.520Z,9.50
2023-03-11T11:54:25.446Z,9.90
2023-03-11T11:56:52.015Z,10.05
2023-03-11T11:59:23.026Z,9.32
2023-03-11T12:02:07.024Z,10.35
2023-03-11T12:04:58.115Z,9.32
2023-03-11T12:07:51.212Z,8.23
2023-03-11T12:10:26.948Z,8.00
2023-03-11T12:13:16.652Z,7.55
2023-03-11T12:16:06.357Z,6.50
2023-03-11T12:18:38.837Z,6.65
2023-03-11T12:21:29.372Z,7.05
2023-03-11T12:24:17.589Z,6.40
2023-03-11T12:26:47.185Z,8.70
2023-03-11T12:29:19.882Z,7.28
2023-03-11T12:31:47.694Z,8.02
2023-03-11T12:34:17.599Z,7.45
2023-03-11T12:36:46.934Z,7.40
2023-03-11T12:39:28.628Z,6.60
2023-03-11T12:44:41.140Z,7.45
2023-03-11T12:47:07.504Z,6.95
2023-03-11T12:49:36.986Z,6.63
2023-03-11T12:52:12.395Z,7.47
2023-03-11T12:54:45.635Z,6.80
2023-03-11T12:57:18.013Z,7.18
2023-03-11T13:00:18.064Z,6.50
2023-03-11T13:03:11.460Z,7.10
2023-03-11T13:06:10.218Z,7.40
2023-03-11T13:08:50.223Z,7.95
2023-03-11T13:11:32.005Z,6.40
2023-03-11T13:16:47.435Z,6.38
2023-03-11T13:19:35.281Z,6.68
2023-03-11T13:22:04.288Z,6.88
2023-03-11T13:24:31.590Z,7.03
2023-03-11T13:27:09.956Z,7.35
2023-03-11T13:30:16.111Z,7.30
2023-03-11T13:33:22.826Z,6.40
2023-03-11T13:36:08.568Z,6.50
2023-03-11T13:38:43.439Z,6.35
2023-03-11T13:41:34.899Z,5.82
2023-03-11T13:44:30.566Z,6.60
2023-03-11T13:47:02.793Z,6.20
2023-03-11T13:49:41.192Z,5.35
2023-03-11T13:52:12.690Z,5.85
2023-03-11T13:54:45.009Z,6.10
2023-03-11T13:57:25.784Z,5.60
2023-03-11T13:59:54.275Z,5.93
2023-03-11T14:02:24.171Z,5.35
2023-03-11T14:05:03.619Z,6.10
2023-03-11T14:07:34.274Z,5.55
2023-03-11T14:10:23.599Z,5.53
2023-03-11T14:12:50.643Z,5.90
2023-03-11T14:15:27.370Z,5.75
2023-03-11T14:17:54.365Z,5.18
2023-03-11T14:20:25.160Z,5.38
2023-03-11T14:22:54.126Z,5.40
2023-03-11T14:25:26.165Z,5.45
2023-03-11T14:27:57.099Z,5.22
2023-03-11T14:30:27.234Z,6.03
2023-03-11T14:33:15.635Z,5.75
2023-03-11T14:35:52.474Z,5.70
2023-03-11T14:38:24.586Z,6.07
2023-03-11T14:40:55.341Z,6.53
2023-03-11T14:43:22.324Z,6.35
2023-03-11T14:45:50.985Z,5.80
2023-03-11T14:48:23.529Z,5.13
2023-03-11T14:50:50.693Z,5.03
2023-03-11T14:53:40.775Z,5.30
2023-03-11T14:56:13.409Z,4.90
2023-03-11T14:59:11.488Z,5.10
2023-03-11T15:01:41.055Z,4.85
2023-03-11T15:04:32.840Z,4.65
2023-03-11T15:09:28.596Z,4.47
2023-03-11T15:12:00.102Z,4.10
2023-03-11T15:17:41.134Z,4.40
2023-03-11T15:20:23.669Z,4.80
2023-03-11T15:23:01.199Z,4.05
2023-03-11T15:25:31.497Z,4.72
2023-03-11T15:27:58.079Z,3.83
2023-03-11T15:30:31.003Z,3.53
2023-03-11T15:32:59.042Z,4.32
2023-03-11T15:35:30.835Z,3.67
2023-03-11T15:38:12.674Z,3.55
2023-03-11T15:43:15.506Z,3.53
2023-03-11T15:45:43.341Z,3.70
2023-03-11T15:48:11.480Z,3.63
2023-03-11T15:50:54.836Z,3.47
2023-03-11T15:53:23.251Z,3.15
2023-03-11T15:55:50.070Z,3.55
2023-03-11T15:58:19.229Z,3.30
2023-03-11T16:00:55.971Z,3.65
2023-03-11T16:03:23.357Z,3.33
2023-03-11T16:05:49.768Z,3.95
2023-03-11T16:08:16.970Z,3.40
2023-03-11T16:10:43.853Z,3.10
2023-03-11T16:13:12.928Z,3.15
2023-03-11T16:15:39.609Z,3.10
2023-03-11T16:18:10.024Z,2.90
2023-03-11T16:20:41.311Z,2.75
2023-03-11T16:23:15.308Z,2.80
2023-03-11T16:25:42.104Z,2.83
2023-03-11T16:28:12.910Z,2.63
2023-03-11T16:30:39.503Z,3.55
2023-03-11T16:33:05.986Z,3.40
2023-03-11T16:35:33.118Z,3.25
2023-03-11T16:37:59.695Z,3.00
2023-03-11T16:40:28.826Z,2.92
2023-03-11T16:43:01.759Z,3.20
2023-03-11T16:45:28.210Z,3.15
2023-03-11T16:47:54.709Z,2.72
2023-03-11T16:50:24.240Z,3.05
2023-03-11T16:52:55.074Z,2.10
2023-03-11T16:55:21.998Z,2.78
2023-03-11T16:57:49.061Z,2.45
2023-03-11T17:00:18.034Z,2.65
2023-03-11T17:02:44.828Z,3.00
2023-03-11T17:05:11.540Z,2.72
2023-03-11T17:07:39.599Z,2.92
2023-03-11T17:10:07.528Z,2.47
2023-03-11T17:12:33.979Z,2.72
2023-03-11T17:15:00.726Z,2.55
2023-03-11T17:17:27.244Z,2.65
2023-03-11T17:19:53.723Z,2.83
2023-03-11T17:22:20.229Z,3.63
2023-03-11T17:24:46.835Z,2.78
2023-03-11T17:27:13.392Z,3.55
2023-03-11T17:29:39.894Z,3.17
2023-03-11T17:32:06.849Z,3.83
2023-03-11T17:34:33.498Z,4.28
2023-03-11T17:36:59.982Z,4.07
2023-03-11T17:39:26.500Z,3.75
2023-03-11T17:41:53.006Z,3.53
2023-03-11T17:44:19.440Z,3.33
2023-03-11T17:46:45.997Z,3.85
2023-03-11T17:49:14.652Z,4.13
2023-03-11T17:51:41.130Z,4.80
2023-03-11T17:54:07.589Z,3.75
2023-03-11T17:56:34.143Z,4.20
2023-03-11T17:59:00.806Z,4.63
2023-03-11T18:01:28.347Z,3.70
2023-03-11T18:03:55.189Z,4.18
2023-03-11T18:06:22.286Z,4.13
2023-03-11T18:08:49.329Z,3.83
2023-03-11T18:11:19.300Z,4.07
2023-03-11T18:13:45.951Z,3.72
2023-03-11T18:16:15.202Z,6.45
2023-03-11T18:18:42.753Z,4.32
2023-03-11T18:21:13.055Z,3.55
2023-03-11T18:23:40.265Z,3.65
2023-03-11T18:26:08.361Z,3.80
2023-03-11T18:28:35.914Z,3.47
2023-03-11T18:31:10.814Z,3.40
2023-03-11T18:33:38.322Z,3.33
2023-03-11T18:36:16.947Z,3.25
2023-03-11T18:38:43.799Z,3.25
2023-03-11T18:41:10.732Z,2.80
2023-03-11T18:43:37.911Z,2.88
2023-03-11T18:46:09.363Z,3.80
2023-03-11T18:51:02.338Z,3.53
2023-03-11T18:53:28.801Z,4.40
2023-03-11T18:56:00.036Z,3.13
2023-03-11T18:58:26.521Z,3.15
2023-03-11T19:00:53.047Z,4.00
2023-03-11T19:03:19.518Z,3.40
2023-03-11T19:05:50.881Z,3.80
2023-03-11T19:10:43.824Z,3.33
2023-03-11T19:13:10.682Z,4.13
2023-03-11T19:15:41.607Z,3.80
2023-03-11T19:18:08.762Z,3.60
2023-03-11T19:20:35.722Z,3.20
2023-03-11T19:23:02.692Z,3.50
2023-03-11T19:25:29.217Z,2.90
2023-03-11T19:27:56.612Z,3.38
2023-03-11T19:30:23.391Z,5.03
2023-03-11T19:32:53.012Z,3.15
2023-03-11T19:35:21.033Z,3.45
2023-03-11T19:37:48.166Z,3.45
2023-03-11T19:40:16.258Z,3.20
2023-03-11T19:42:43.236Z,3.60
2023-03-11T19:45:10.319Z,3.05
2023-03-11T19:47:37.207Z,3.60
2023-03-11T19:50:03.953Z,3.45
2023-03-11T19:52:30.435Z,3.33
2023-03-11T19:54:57.251Z,3.10
2023-03-11T19:57:23.768Z,3.08
2023-03-11T19:59:50.620Z,3.30
2023-03-11T20:02:17.139Z,2.95
2023-03-11T20:04:43.696Z,3.38
2023-03-11T20:07:10.274Z,3.80
2023-03-11T20:09:36.859Z,2.85
2023-03-11T20:12:03.443Z,3.10
2023-03-11T20:14:30.023Z,3.00
2023-03-11T20:16:56.467Z,2.40
2023-03-11T20:19:23.021Z,2.33
2023-03-11T20:21:49.658Z,3.22
2023-03-11T20:24:16.267Z,2.78
2023-03-11T20:26:45.328Z,2.35
2023-03-11T20:29:12.190Z,2.40
2023-03-11T20:31:39.198Z,2.88
2023-03-11T20:34:05.858Z,2.40
2023-03-11T20:36:33.664Z,2.45
2023-03-11T20:39:00.585Z,2.90
2023-03-11T20:41:35.747Z,2.05
2023-03-11T20:44:02.267Z,2.50
2023-03-11T20:46:28.867Z,2.17
2023-03-11T20:48:55.431Z,2.55
2023-03-11T20:51:24.249Z,1.95
2023-03-11T20:53:50.862Z,2.72
2023-03-11T20:56:23.133Z,2.60
2023-03-11T20:58:53.139Z,2.15
2023-03-11T21:01:26.816Z,2.58
2023-03-11T21:03:55.212Z,1.98
2023-03-11T21:06:32.464Z,2.15
2023-03-11T21:09:01.300Z,2.10
2023-03-11T21:11:28.373Z,2.45
2023-03-11T21:13:55.532Z,2.13
2023-03-11T21:16:22.750Z,1.90
2023-03-11T21:18:49.803Z,2.85
2023-03-11T21:21:17.828Z,2.58
2023-03-11T21:23:46.904Z,2.70
2023-03-11T21:26:15.153Z,2.00
2023-03-11T21:28:46.513Z,2.20
2023-03-11T21:31:22.784Z,2.30
2023-03-11T21:33:53.121Z,2.10
2023-03-11T21:36:19.844Z,2.08
2023-03-11T21:38:47.580Z,1.95
2023-03-11T21:41:25.661Z,2.00
2023-03-11T21:43:54.098Z,2.35
2023-03-11T21:46:24.461Z,1.63
2023-03-11T21:48:51.587Z,1.98
2023-03-11T21:51:19.249Z,1.90
2023-03-11T21:53:46.503Z,1.92
2023-03-11T21:56:13.547Z,2.55
2023-03-11T21:58:40.656Z,2.22
2023-03-11T22:01:08.260Z,2.95
2023-03-11T22:03:36.192Z,1.88
2023-03-11T22:06:09.904Z,2.42
2023-03-11T22:08:36.675Z,1.88
2023-03-11T22:11:07.613Z,2.40
2023-03-11T22:13:34.232Z,1.67
2023-03-11T22:16:06.342Z,1.80
2023-03-11T22:18:33.306Z,2.50
2023-03-11T22:21:00.472Z,2.15
2023-03-11T22:23:27.822Z,2.40
2023-03-11T22:25:54.401Z,1.65
2023-03-11T22:28:20.905Z,2.53
2023-03-11T22:30:47.349Z,2.33
2023-03-11T22:33:13.945Z,1.55
2023-03-11T22:35:40.710Z,1.98
2023-03-11T22:38:07.177Z,1.77
2023-03-11T22:40:35.071Z,2.03
2023-03-11T22:43:01.583Z,1.77
2023-03-11T22:45:28.033Z,2.17
2023-03-11T22:47:54.868Z,2.33
2023-03-11T22:50:21.765Z,1.83
2023-03-11T22:52:48.284Z,1.58
2023-03-11T22:55:14.748Z,1.73
2023-03-11T22:57:41.200Z,1.95
2023-03-11T23:00:17.064Z,1.80
2023-03-11T23:02:45.254Z,2.65
2023-03-11T23:05:13.860Z,1.52
2023-03-11T23:07:40.809Z,2.40
2023-03-11T23:10:08.937Z,1.77
2023-03-11T23:12:36.613Z,1.48
2023-03-11T23:15:06.020Z,1.70
2023-03-11T23:17:32.614Z,2.13
2023-03-11T23:19:59.803Z,2.85
2023-03-11T23:22:26.532Z,2.92
2023-03-11T23:24:53.155Z,2.10
2023-03-11T23:27:19.697Z,1.90
2023-03-11T23:29:47.789Z,1.70
2023-03-11T23:32:14.400Z,1.98
2023-03-11T23:34:41.063Z,2.10
2023-03-11T23:37:07.533Z,2.10
2023-03-11T23:39:33.964Z,1.73
2023-03-11T23:42:02.037Z,2.28
2023-03-11T23:44:28.644Z,2.53
2023-03-11T23:46:55.287Z,2.00
2023-03-11T23:49:21.933Z,1.67
2023-03-11T23:51:48.387Z,1.92
2023-03-11T23:54:14.868Z,2.47
2023-03-11T23:56:42.878Z,2.03
2023-03-11T23:59:09.364Z,1.88
